sensor_id;sensor_type;location;lat;lon;timestamp;pressure;altitude;pressure_sealevel;temperature;humidity
6387;BME280;3226;42.162;24.756;2023-04-28T00:00:01;99861.88;;;10.81;46.94
6387;BME280;3226;42.162;24.756;2023-04-28T00:02:31;99857.94;;;10.76;46.84
6387;BME280;3226;42.162;24.756;2023-04-28T00:05:00;99857.06;;;10.54;46.54
6387;BME280;3226;42.162;24.756;2023-04-28T00:07:28;99858.22;;;10.61;46.61
6387;BME280;3226;42.162;24.756;2023-04-28T00:09:56;99852.88;;;10.63;47.15
6387;BME280;3226;42.162;24.756;2023-04-28T00:12:24;99855.63;;;10.50;47.73
6387;BME280;3226;42.162;24.756;2023-04-28T00:14:52;99859.94;;;10.51;47.72
6387;BME280;3226;42.162;24.756;2023-04-28T00:17:20;99832.78;;;10.40;47.85
6387;BME280;3226;42.162;24.756;2023-04-28T00:19:50;99852.78;;;10.53;46.61
6387;BME280;3226;42.162;24.756;2023-04-28T00:22:18;99861.34;;;10.55;45.84
6387;BME280;3226;42.162;24.756;2023-04-28T00:24:46;99858.97;;;10.52;45.95
6387;BME280;3226;42.162;24.756;2023-04-28T00:27:14;99862.91;;;10.46;46.79
6387;BME280;3226;42.162;24.756;2023-04-28T00:29:42;99861.78;;;10.37;46.08
6387;BME280;3226;42.162;24.756;2023-04-28T00:32:10;99862.75;;;10.36;46.59
6387;BME280;3226;42.162;24.756;2023-04-28T00:34:39;99865.59;;;10.33;46.26
6387;BME280;3226;42.162;24.756;2023-04-28T00:37:08;99862.16;;;10.21;46.52
6387;BME280;3226;42.162;24.756;2023-04-28T00:39:36;99865.50;;;10.35;47.38
6387;BME280;3226;42.162;24.756;2023-04-28T00:42:04;99863.72;;;10.24;46.97
6387;BME280;3226;42.162;24.756;2023-04-28T00:44:32;99861.22;;;10.11;47.96
6387;BME280;3226;42.162;24.756;2023-04-28T00:47:00;99863.22;;;10.07;47.19
6387;BME280;3226;42.162;24.756;2023-04-28T00:49:29;99864.31;;;10.05;47.78
6387;BME280;3226;42.162;24.756;2023-04-28T00:51:57;99865.75;;;9.97;47.15
6387;BME280;3226;42.162;24.756;2023-04-28T00:54:31;99860.13;;;9.79;48.32
6387;BME280;3226;42.162;24.756;2023-04-28T00:57:00;99859.66;;;9.74;48.66
6387;BME280;3226;42.162;24.756;2023-04-28T00:59:28;99859.38;;;9.66;48.66
6387;BME280;3226;42.162;24.756;2023-04-28T01:01:58;99876.91;;;9.41;49.23
6387;BME280;3226;42.162;24.756;2023-04-28T01:04:28;99863.78;;;9.30;50.06
6387;BME280;3226;42.162;24.756;2023-04-28T01:06:57;99873.91;;;9.34;50.52
6387;BME280;3226;42.162;24.756;2023-04-28T01:09:25;99870.19;;;9.25;51.31
6387;BME280;3226;42.162;24.756;2023-04-28T01:11:54;99865.59;;;9.29;51.30
6387;BME280;3226;42.162;24.756;2023-04-28T01:14:24;99864.56;;;9.43;51.58
6387;BME280;3226;42.162;24.756;2023-04-28T01:16:52;99867.75;;;9.35;52.45
6387;BME280;3226;42.162;24.756;2023-04-28T01:19:21;99860.28;;;9.42;51.92
6387;BME280;3226;42.162;24.756;2023-04-28T01:21:49;99864.06;;;9.38;53.03
6387;BME280;3226;42.162;24.756;2023-04-28T01:24:19;99866.72;;;9.49;52.80
6387;BME280;3226;42.162;24.756;2023-04-28T01:26:46;99868.91;;;9.31;53.78
6387;BME280;3226;42.162;24.756;2023-04-28T01:29:14;99873.69;;;9.37;53.37
6387;BME280;3226;42.162;24.756;2023-04-28T01:31:42;99864.97;;;9.25;54.28
6387;BME280;3226;42.162;24.756;2023-04-28T01:34:10;99822.44;;;8.88;53.73
6387;BME280;3226;42.162;24.756;2023-04-28T01:36:39;99870.53;;;9.21;53.13
6387;BME280;3226;42.162;24.756;2023-04-28T01:39:06;99864.72;;;9.29;54.03
6387;BME280;3226;42.162;24.756;2023-04-28T01:41:36;99872.63;;;9.16;54.23
6387;BME280;3226;42.162;24.756;2023-04-28T01:44:04;99865.44;;;8.95;56.38
6387;BME280;3226;42.162;24.756;2023-04-28T01:46:33;99867.91;;;8.96;56.46
6387;BME280;3226;42.162;24.756;2023-04-28T01:49:02;99870.88;;;8.92;56.45
6387;BME280;3226;42.162;24.756;2023-04-28T01:51:30;99871.38;;;8.97;55.43
6387;BME280;3226;42.162;24.756;2023-04-28T01:53:58;99855.56;;;8.74;57.39
6387;BME280;3226;42.162;24.756;2023-04-28T01:56:26;99880.44;;;8.80;56.00
6387;BME280;3226;42.162;24.756;2023-04-28T01:58:55;99875.88;;;8.71;57.00
6387;BME280;3226;42.162;24.756;2023-04-28T02:01:23;99875.56;;;8.62;58.20
6387;BME280;3226;42.162;24.756;2023-04-28T02:03:51;99884.56;;;8.58;57.79
6387;BME280;3226;42.162;24.756;2023-04-28T02:06:21;99879.03;;;8.50;57.46
6387;BME280;3226;42.162;24.756;2023-04-28T02:08:49;99880.84;;;8.49;58.02
6387;BME280;3226;42.162;24.756;2023-04-28T02:11:17;99881.22;;;8.56;58.23
6387;BME280;3226;42.162;24.756;2023-04-28T02:13:45;99883.50;;;8.61;57.34
6387;BME280;3226;42.162;24.756;2023-04-28T02:16:14;99889.78;;;8.58;56.40
6387;BME280;3226;42.162;24.756;2023-04-28T02:18:42;99877.94;;;8.65;56.75
6387;BME280;3226;42.162;24.756;2023-04-28T02:21:11;99876.28;;;8.64;55.91
6387;BME280;3226;42.162;24.756;2023-04-28T02:23:39;99886.22;;;8.46;57.06
6387;BME280;3226;42.162;24.756;2023-04-28T02:26:07;99867.06;;;8.34;56.53
6387;BME280;3226;42.162;24.756;2023-04-28T02:28:35;99894.16;;;8.45;56.52
6387;BME280;3226;42.162;24.756;2023-04-28T02:31:04;99894.81;;;8.35;56.07
6387;BME280;3226;42.162;24.756;2023-04-28T02:33:34;99889.38;;;8.38;56.06
6387;BME280;3226;42.162;24.756;2023-04-28T02:36:03;99898.03;;;8.39;56.04
6387;BME280;3226;42.162;24.756;2023-04-28T02:38:31;99872.28;;;8.21;55.31
6387;BME280;3226;42.162;24.756;2023-04-28T02:41:00;99891.03;;;8.39;55.67
6387;BME280;3226;42.162;24.756;2023-04-28T02:43:30;99895.56;;;8.50;54.95
6387;BME280;3226;42.162;24.756;2023-04-28T02:45:58;99889.53;;;8.48;54.75
6387;BME280;3226;42.162;24.756;2023-04-28T02:48:26;99888.09;;;8.57;54.10
6387;BME280;3226;42.162;24.756;2023-04-28T02:50:56;99891.78;;;8.55;53.73
6387;BME280;3226;42.162;24.756;2023-04-28T02:53:24;99893.09;;;8.60;53.21
6387;BME280;3226;42.162;24.756;2023-04-28T02:55:52;99890.00;;;8.55;52.82
6387;BME280;3226;42.162;24.756;2023-04-28T02:58:20;99899.38;;;8.45;53.88
6387;BME280;3226;42.162;24.756;2023-04-28T03:00:48;99907.75;;;8.50;54.27
6387;BME280;3226;42.162;24.756;2023-04-28T03:03:16;99911.50;;;8.46;54.33
6387;BME280;3226;42.162;24.756;2023-04-28T03:05:44;99907.66;;;8.38;53.36
6387;BME280;3226;42.162;24.756;2023-04-28T03:08:13;99910.78;;;8.44;52.94
6387;BME280;3226;42.162;24.756;2023-04-28T03:10:41;99917.75;;;8.43;52.44
6387;BME280;3226;42.162;24.756;2023-04-28T03:13:09;99909.59;;;8.48;52.35
6387;BME280;3226;42.162;24.756;2023-04-28T03:15:38;99921.94;;;8.46;52.59
6387;BME280;3226;42.162;24.756;2023-04-28T03:18:06;99925.28;;;8.48;52.75
6387;BME280;3226;42.162;24.756;2023-04-28T03:20:34;99920.25;;;8.45;53.36
6387;BME280;3226;42.162;24.756;2023-04-28T03:23:02;99931.75;;;8.42;51.91
6387;BME280;3226;42.162;24.756;2023-04-28T03:25:31;99928.75;;;8.35;53.30
6387;BME280;3226;42.162;24.756;2023-04-28T03:27:59;99936.56;;;8.35;52.60
6387;BME280;3226;42.162;24.756;2023-04-28T03:30:27;99944.06;;;8.27;52.89
6387;BME280;3226;42.162;24.756;2023-04-28T03:32:55;99951.88;;;8.40;52.36
6387;BME280;3226;42.162;24.756;2023-04-28T03:35:23;99958.25;;;8.36;52.04
6387;BME280;3226;42.162;24.756;2023-04-28T03:37:51;99972.56;;;8.30;52.36
6387;BME280;3226;42.162;24.756;2023-04-28T03:40:19;99972.75;;;8.27;52.49
6387;BME280;3226;42.162;24.756;2023-04-28T03:42:48;99957.00;;;8.16;53.06
6387;BME280;3226;42.162;24.756;2023-04-28T03:45:16;99970.88;;;8.42;52.06
6387;BME280;3226;42.162;24.756;2023-04-28T03:47:44;99987.47;;;8.28;53.18
6387;BME280;3226;42.162;24.756;2023-04-28T03:50:12;99980.81;;;8.24;52.40
6387;BME280;3226;42.162;24.756;2023-04-28T03:52:40;99985.22;;;8.36;53.15
6387;BME280;3226;42.162;24.756;2023-04-28T03:55:09;99990.63;;;8.33;51.77
6387;BME280;3226;42.162;24.756;2023-04-28T03:57:37;99996.88;;;8.31;52.18
6387;BME280;3226;42.162;24.756;2023-04-28T04:00:07;99981.22;;;8.18;52.20
6387;BME280;3226;42.162;24.756;2023-04-28T04:02:35;100004.13;;;8.53;52.50
6387;BME280;3226;42.162;24.756;2023-04-28T04:05:04;100003.78;;;8.45;52.04
6387;BME280;3226;42.162;24.756;2023-04-28T04:07:32;100007.03;;;8.61;52.27
6387;BME280;3226;42.162;24.756;2023-04-28T04:10:00;100014.84;;;8.74;51.73
6387;BME280;3226;42.162;24.756;2023-04-28T04:12:30;100021.97;;;8.85;51.47
6387;BME280;3226;42.162;24.756;2023-04-28T04:14:58;100017.75;;;8.95;50.65
6387;BME280;3226;42.162;24.756;2023-04-28T04:17:27;100024.13;;;9.04;51.08
6387;BME280;3226;42.162;24.756;2023-04-28T04:19:55;100022.75;;;9.11;49.85
6387;BME280;3226;42.162;24.756;2023-04-28T04:22:23;100023.81;;;9.09;49.65
6387;BME280;3226;42.162;24.756;2023-04-28T04:24:51;100023.09;;;9.07;50.26
6387;BME280;3226;42.162;24.756;2023-04-28T04:27:19;100024.97;;;9.05;50.64
6387;BME280;3226;42.162;24.756;2023-04-28T04:29:47;100027.16;;;9.11;50.29
6387;BME280;3226;42.162;24.756;2023-04-28T04:32:15;100033.81;;;9.15;50.33
6387;BME280;3226;42.162;24.756;2023-04-28T04:34:44;100037.25;;;9.16;49.83
6387;BME280;3226;42.162;24.756;2023-04-28T04:37:12;100027.00;;;9.25;49.65
6387;BME280;3226;42.162;24.756;2023-04-28T04:39:40;100036.22;;;9.18;50.21
6387;BME280;3226;42.162;24.756;2023-04-28T04:42:08;100035.56;;;9.28;49.89
6387;BME280;3226;42.162;24.756;2023-04-28T04:44:50;100046.09;;;9.39;49.76
6387;BME280;3226;42.162;24.756;2023-04-28T04:47:18;100043.75;;;9.47;49.32
6387;BME280;3226;42.162;24.756;2023-04-28T04:49:48;100045.09;;;9.53;48.52
6387;BME280;3226;42.162;24.756;2023-04-28T04:52:16;100041.59;;;9.65;48.39
6387;BME280;3226;42.162;24.756;2023-04-28T04:54:45;100052.06;;;9.65;48.55
6387;BME280;3226;42.162;24.756;2023-04-28T04:57:13;100059.63;;;9.57;48.54
6387;BME280;3226;42.162;24.756;2023-04-28T04:59:40;100064.69;;;9.47;47.80
6387;BME280;3226;42.162;24.756;2023-04-28T05:02:08;100063.28;;;9.54;48.95
6387;BME280;3226;42.162;24.756;2023-04-28T05:04:37;100064.00;;;9.57;49.04
6387;BME280;3226;42.162;24.756;2023-04-28T05:07:06;100066.47;;;9.71;48.50
6387;BME280;3226;42.162;24.756;2023-04-28T05:09:34;100065.56;;;10.08;47.84
6387;BME280;3226;42.162;24.756;2023-04-28T05:12:02;100061.31;;;10.65;46.43
6387;BME280;3226;42.162;24.756;2023-04-28T05:14:31;100058.50;;;11.14;45.40
6387;BME280;3226;42.162;24.756;2023-04-28T05:16:59;100068.72;;;11.17;44.83
6387;BME280;3226;42.162;24.756;2023-04-28T05:19:27;100013.69;;;10.72;44.61
6387;BME280;3226;42.162;24.756;2023-04-28T05:21:55;100078.78;;;11.67;44.00
6387;BME280;3226;42.162;24.756;2023-04-28T05:24:24;100075.50;;;11.86;43.59
6387;BME280;3226;42.162;24.756;2023-04-28T05:26:52;100076.41;;;11.97;43.73
6387;BME280;3226;42.162;24.756;2023-04-28T05:29:20;100092.47;;;13.10;41.51
6387;BME280;3226;42.162;24.756;2023-04-28T05:31:48;100091.03;;;13.97;38.80
6387;BME280;3226;42.162;24.756;2023-04-28T05:34:16;100095.41;;;14.76;38.29
6387;BME280;3226;42.162;24.756;2023-04-28T05:36:44;100092.84;;;15.50;36.35
6387;BME280;3226;42.162;24.756;2023-04-28T05:39:12;100100.66;;;15.69;35.86
6387;BME280;3226;42.162;24.756;2023-04-28T05:41:42;100099.13;;;14.83;38.07
6387;BME280;3226;42.162;24.756;2023-04-28T05:44:10;100097.84;;;14.87;37.43
6387;BME280;3226;42.162;24.756;2023-04-28T05:46:38;100091.84;;;14.17;37.59
6387;BME280;3226;42.162;24.756;2023-04-28T05:49:06;100097.63;;;14.51;38.02
6387;BME280;3226;42.162;24.756;2023-04-28T05:51:33;100101.28;;;14.10;37.25
6387;BME280;3226;42.162;24.756;2023-04-28T05:54:01;100103.31;;;14.76;37.05
6387;BME280;3226;42.162;24.756;2023-04-28T05:56:29;100101.41;;;16.34;34.96
6387;BME280;3226;42.162;24.756;2023-04-28T05:58:59;100109.53;;;16.59;34.25
6387;BME280;3226;42.162;24.756;2023-04-28T06:01:29;100108.97;;;17.00;33.37
6387;BME280;3226;42.162;24.756;2023-04-28T06:03:57;100118.03;;;17.32;33.71
6387;BME280;3226;42.162;24.756;2023-04-28T06:06:26;100120.31;;;16.92;32.67
6387;BME280;3226;42.162;24.756;2023-04-28T06:08:54;100118.50;;;15.57;34.17
6387;BME280;3226;42.162;24.756;2023-04-28T06:11:22;100110.22;;;14.67;36.20
6387;BME280;3226;42.162;24.756;2023-04-28T06:13:50;100110.41;;;14.36;38.09
6387;BME280;3226;42.162;24.756;2023-04-28T06:16:20;100115.66;;;13.86;38.63
6387;BME280;3226;42.162;24.756;2023-04-28T06:18:49;100110.78;;;13.62;39.66
6387;BME280;3226;42.162;24.756;2023-04-28T06:21:17;100117.00;;;13.51;40.74
6387;BME280;3226;42.162;24.756;2023-04-28T06:23:46;100120.19;;;13.24;39.88
6387;BME280;3226;42.162;24.756;2023-04-28T06:26:14;100116.91;;;13.32;41.03
6387;BME280;3226;42.162;24.756;2023-04-28T06:28:44;100117.31;;;13.68;40.03
6387;BME280;3226;42.162;24.756;2023-04-28T06:31:12;100122.69;;;13.66;41.05
6387;BME280;3226;42.162;24.756;2023-04-28T06:33:41;100123.13;;;13.71;39.63
6387;BME280;3226;42.162;24.756;2023-04-28T06:36:09;100120.09;;;13.76;39.33
6387;BME280;3226;42.162;24.756;2023-04-28T06:38:39;100125.94;;;13.90;38.94
6387;BME280;3226;42.162;24.756;2023-04-28T06:41:08;100112.56;;;14.70;38.14
6387;BME280;3226;42.162;24.756;2023-04-28T06:43:36;100118.06;;;14.96;38.19
6387;BME280;3226;42.162;24.756;2023-04-28T06:46:04;100114.81;;;14.74;39.53
6387;BME280;3226;42.162;24.756;2023-04-28T06:48:32;100111.44;;;14.92;38.56
6387;BME280;3226;42.162;24.756;2023-04-28T06:51:02;100103.28;;;15.13;37.97
6387;BME280;3226;42.162;24.756;2023-04-28T06:53:30;100112.75;;;15.44;37.31
6387;BME280;3226;42.162;24.756;2023-04-28T06:55:58;100116.94;;;15.09;37.40
6387;BME280;3226;42.162;24.756;2023-04-28T06:58:28;100116.47;;;14.66;37.40
6387;BME280;3226;42.162;24.756;2023-04-28T07:00:56;100114.31;;;14.31;36.98
6387;BME280;3226;42.162;24.756;2023-04-28T07:03:25;100116.81;;;14.13;39.11
6387;BME280;3226;42.162;24.756;2023-04-28T07:05:53;100106.56;;;14.20;37.72
6387;BME280;3226;42.162;24.756;2023-04-28T07:08:23;100113.19;;;14.34;38.26
6387;BME280;3226;42.162;24.756;2023-04-28T07:10:51;100113.59;;;14.20;37.83
6387;BME280;3226;42.162;24.756;2023-04-28T07:13:19;100117.75;;;13.93;39.14
6387;BME280;3226;42.162;24.756;2023-04-28T07:15:47;100086.19;;;13.42;38.33
6387;BME280;3226;42.162;24.756;2023-04-28T07:18:16;100113.53;;;13.51;39.73
6387;BME280;3226;42.162;24.756;2023-04-28T07:20:44;100117.00;;;13.51;39.56
6387;BME280;3226;42.162;24.756;2023-04-28T07:23:14;100112.75;;;13.70;38.89
6387;BME280;3226;42.162;24.756;2023-04-28T07:25:43;100118.09;;;13.58;39.04
6387;BME280;3226;42.162;24.756;2023-04-28T07:28:12;100114.97;;;13.74;38.25
6387;BME280;3226;42.162;24.756;2023-04-28T07:30:40;100111.25;;;14.07;38.97
6387;BME280;3226;42.162;24.756;2023-04-28T07:33:08;100115.97;;;14.23;36.98
6387;BME280;3226;42.162;24.756;2023-04-28T07:35:36;100117.06;;;13.91;38.22
6387;BME280;3226;42.162;24.756;2023-04-28T07:38:04;100120.25;;;13.84;38.70
6387;BME280;3226;42.162;24.756;2023-04-28T07:40:32;100125.25;;;14.07;39.70
6387;BME280;3226;42.162;24.756;2023-04-28T07:43:02;100101.34;;;13.59;37.99
6387;BME280;3226;42.162;24.756;2023-04-28T07:45:30;100113.31;;;13.83;39.17
6387;BME280;3226;42.162;24.756;2023-04-28T07:47:58;100112.47;;;13.73;39.07
6387;BME280;3226;42.162;24.756;2023-04-28T07:50:26;100108.56;;;13.67;38.51
6387;BME280;3226;42.162;24.756;2023-04-28T07:52:54;100096.84;;;13.30;39.12
6387;BME280;3226;42.162;24.756;2023-04-28T07:55:23;100111.03;;;13.18;38.80
6387;BME280;3226;42.162;24.756;2023-04-28T07:57:51;100098.63;;;13.30;38.65
6387;BME280;3226;42.162;24.756;2023-04-28T08:00:21;100104.00;;;13.69;39.48
6387;BME280;3226;42.162;24.756;2023-04-28T08:02:49;100102.53;;;13.96;39.33
6387;BME280;3226;42.162;24.756;2023-04-28T08:05:17;100100.72;;;13.97;39.10
6387;BME280;3226;42.162;24.756;2023-04-28T08:07:46;100096.16;;;14.19;39.54
6387;BME280;3226;42.162;24.756;2023-04-28T08:10:14;100097.38;;;13.95;38.96
6387;BME280;3226;42.162;24.756;2023-04-28T08:12:42;100088.19;;;13.59;38.32
6387;BME280;3226;42.162;24.756;2023-04-28T08:15:11;100080.44;;;13.58;39.20
6387;BME280;3226;42.162;24.756;2023-04-28T08:17:40;100091.56;;;13.91;39.58
6387;BME280;3226;42.162;24.756;2023-04-28T08:20:09;100090.47;;;14.33;38.49
6387;BME280;3226;42.162;24.756;2023-04-28T08:22:38;100089.72;;;14.51;38.71
6387;BME280;3226;42.162;24.756;2023-04-28T08:25:07;100090.41;;;14.72;37.58
6387;BME280;3226;42.162;24.756;2023-04-28T08:27:36;100076.75;;;14.87;39.35
6387;BME280;3226;42.162;24.756;2023-04-28T08:30:06;100076.56;;;14.51;38.64
6387;BME280;3226;42.162;24.756;2023-04-28T08:32:34;100074.81;;;14.89;39.84
6387;BME280;3226;42.162;24.756;2023-04-28T08:35:05;100074.44;;;15.12;39.02
6387;BME280;3226;42.162;24.756;2023-04-28T08:37:33;100058.22;;;15.07;40.74
6387;BME280;3226;42.162;24.756;2023-04-28T08:40:01;100057.88;;;14.92;39.62
6387;BME280;3226;42.162;24.756;2023-04-28T08:42:36;100049.34;;;14.60;41.15
6387;BME280;3226;42.162;24.756;2023-04-28T08:45:06;100065.66;;;14.83;41.94
6387;BME280;3226;42.162;24.756;2023-04-28T08:47:35;100042.38;;;14.79;41.26
6387;BME280;3226;42.162;24.756;2023-04-28T08:50:06;100066.44;;;14.46;38.89
6387;BME280;3226;42.162;24.756;2023-04-28T08:52:35;100044.19;;;14.01;40.78
6387;BME280;3226;42.162;24.756;2023-04-28T08:55:05;100061.25;;;13.97;41.34
6387;BME280;3226;42.162;24.756;2023-04-28T08:57:37;100058.84;;;14.03;41.51
6387;BME280;3226;42.162;24.756;2023-04-28T09:00:07;100067.44;;;13.96;41.21
6387;BME280;3226;42.162;24.756;2023-04-28T09:02:36;100046.94;;;13.60;42.64
6387;BME280;3226;42.162;24.756;2023-04-28T09:05:10;100062.06;;;14.07;42.82
6387;BME280;3226;42.162;24.756;2023-04-28T09:07:38;100054.41;;;14.24;41.80
6387;BME280;3226;42.162;24.756;2023-04-28T09:10:15;100021.53;;;14.38;41.48
6387;BME280;3226;42.162;24.756;2023-04-28T09:12:44;100049.91;;;14.54;40.79
6387;BME280;3226;42.162;24.756;2023-04-28T09:15:25;100061.91;;;14.19;40.89
6387;BME280;3226;42.162;24.756;2023-04-28T09:17:53;100052.50;;;14.06;42.73
6387;BME280;3226;42.162;24.756;2023-04-28T09:20:24;100043.66;;;14.65;41.44
6387;BME280;3226;42.162;24.756;2023-04-28T09:22:54;100053.59;;;14.33;40.02
6387;BME280;3226;42.162;24.756;2023-04-28T09:25:22;100051.41;;;14.66;40.71
6387;BME280;3226;42.162;24.756;2023-04-28T09:27:52;100039.88;;;14.77;40.65
6387;BME280;3226;42.162;24.756;2023-04-28T09:30:37;100043.25;;;15.25;41.09
6387;BME280;3226;42.162;24.756;2023-04-28T09:33:05;100035.81;;;14.35;39.96
6387;BME280;3226;42.162;24.756;2023-04-28T09:35:42;100038.63;;;15.09;40.74
6387;BME280;3226;42.162;24.756;2023-04-28T09:38:12;100038.25;;;15.50;38.66
6387;BME280;3226;42.162;24.756;2023-04-28T09:40:54;100039.84;;;16.42;36.74
6387;BME280;3226;42.162;24.756;2023-04-28T09:43:23;100036.84;;;16.37;34.22
6387;BME280;3226;42.162;24.756;2023-04-28T09:45:52;100033.50;;;15.72;37.08
6387;BME280;3226;42.162;24.756;2023-04-28T09:48:28;100036.38;;;14.29;38.89
6387;BME280;3226;42.162;24.756;2023-04-28T09:50:58;100024.03;;;14.39;39.07
6387;BME280;3226;42.162;24.756;2023-04-28T09:53:27;100026.28;;;14.82;39.73
6387;BME280;3226;42.162;24.756;2023-04-28T09:55:56;100022.13;;;14.69;38.06
6387;BME280;3226;42.162;24.756;2023-04-28T09:58:27;100022.50;;;14.84;37.37
6387;BME280;3226;42.162;24.756;2023-04-28T10:00:57;100014.59;;;15.12;37.30
6387;BME280;3226;42.162;24.756;2023-04-28T10:03:27;100015.69;;;15.38;38.06
6387;BME280;3226;42.162;24.756;2023-04-28T10:06:16;100017.69;;;14.70;37.06
6387;BME280;3226;42.162;24.756;2023-04-28T10:08:45;100012.34;;;14.42;38.13
6387;BME280;3226;42.162;24.756;2023-04-28T10:11:15;100009.59;;;14.81;38.74
6387;BME280;3226;42.162;24.756;2023-04-28T10:13:44;99996.25;;;14.93;36.57
6387;BME280;3226;42.162;24.756;2023-04-28T10:16:13;100007.81;;;15.56;37.75
6387;BME280;3226;42.162;24.756;2023-04-28T10:18:42;99996.25;;;15.39;35.99
6387;BME280;3226;42.162;24.756;2023-04-28T10:21:17;99998.72;;;15.40;36.16
6387;BME280;3226;42.162;24.756;2023-04-28T10:23:59;99994.31;;;14.95;36.75
6387;BME280;3226;42.162;24.756;2023-04-28T10:27:02;99987.19;;;14.95;38.26
6387;BME280;3226;42.162;24.756;2023-04-28T10:29:32;99986.47;;;15.03;36.90
6387;BME280;3226;42.162;24.756;2023-04-28T10:32:20;99974.31;;;15.38;36.68
6387;BME280;3226;42.162;24.756;2023-04-28T10:34:49;99973.03;;;15.60;36.28
6387;BME280;3226;42.162;24.756;2023-04-28T10:37:19;99974.59;;;15.35;36.29
6387;BME280;3226;42.162;24.756;2023-04-28T10:42:57;99968.75;;;14.95;37.05
6387;BME280;3226;42.162;24.756;2023-04-28T10:49:05;99966.50;;;15.18;36.97
6387;BME280;3226;42.162;24.756;2023-04-28T10:51:34;99970.09;;;14.99;36.71
6387;BME280;3226;42.162;24.756;2023-04-28T10:54:14;99945.41;;;15.37;36.83
6387;BME280;3226;42.162;24.756;2023-04-28T10:57:20;99955.81;;;15.93;37.08
6387;BME280;3226;42.162;24.756;2023-04-28T10:59:49;99956.75;;;15.47;35.00
6387;BME280;3226;42.162;24.756;2023-04-28T11:02:39;99965.78;;;15.44;36.69
6387;BME280;3226;42.162;24.756;2023-04-28T11:05:13;99962.38;;;15.88;35.97
6387;BME280;3226;42.162;24.756;2023-04-28T11:11:21;99969.72;;;14.94;38.37
6387;BME280;3226;42.162;24.756;2023-04-28T11:13:51;99960.81;;;14.67;38.04
6387;BME280;3226;42.162;24.756;2023-04-28T11:16:21;99957.97;;;14.88;37.41
6387;BME280;3226;42.162;24.756;2023-04-28T11:18:55;99958.81;;;15.07;37.72
6387;BME280;3226;42.162;24.756;2023-04-28T11:21:25;99954.16;;;15.19;37.39
6387;BME280;3226;42.162;24.756;2023-04-28T11:23:56;99951.53;;;15.37;37.79
6387;BME280;3226;42.162;24.756;2023-04-28T11:26:26;99943.06;;;15.70;36.49
6387;BME280;3226;42.162;24.756;2023-04-28T11:28:56;99955.22;;;15.44;36.60
6387;BME280;3226;42.162;24.756;2023-04-28T11:31:25;99938.88;;;15.59;35.99
6387;BME280;3226;42.162;24.756;2023-04-28T11:33:59;99950.00;;;15.89;36.68
6387;BME280;3226;42.162;24.756;2023-04-28T11:36:32;99940.63;;;15.95;36.84
6387;BME280;3226;42.162;24.756;2023-04-28T11:39:02;99943.56;;;16.44;35.40
6387;BME280;3226;42.162;24.756;2023-04-28T11:41:35;99938.88;;;16.65;35.19
6387;BME280;3226;42.162;24.756;2023-04-28T11:44:10;99936.34;;;15.94;36.73
6387;BME280;3226;42.162;24.756;2023-04-28T11:46:45;99937.47;;;15.73;36.44
6387;BME280;3226;42.162;24.756;2023-04-28T11:49:17;99932.72;;;15.76;38.09
6387;BME280;3226;42.162;24.756;2023-04-28T11:51:45;99931.78;;;16.04;37.62
6387;BME280;3226;42.162;24.756;2023-04-28T11:54:19;99921.53;;;15.83;35.83
6387;BME280;3226;42.162;24.756;2023-04-28T11:56:51;99934.47;;;15.68;36.77
6387;BME280;3226;42.162;24.756;2023-04-28T11:59:22;99925.16;;;16.00;36.51
6387;BME280;3226;42.162;24.756;2023-04-28T12:01:53;99922.97;;;16.22;34.62
6387;BME280;3226;42.162;24.756;2023-04-28T12:04:27;99908.34;;;15.83;34.96
6387;BME280;3226;42.162;24.756;2023-04-28T12:07:03;99905.72;;;16.44;34.82
6387;BME280;3226;42.162;24.756;2023-04-28T12:09:32;99916.28;;;16.87;34.27
6387;BME280;3226;42.162;24.756;2023-04-28T12:12:03;99891.91;;;17.26;34.92
6387;BME280;3226;42.162;24.756;2023-04-28T12:14:52;99892.56;;;17.20;33.31
6387;BME280;3226;42.162;24.756;2023-04-28T12:17:24;99896.03;;;17.29;33.68
6387;BME280;3226;42.162;24.756;2023-04-28T12:19:53;99874.38;;;17.33;34.37
6387;BME280;3226;42.162;24.756;2023-04-28T12:22:21;99883.47;;;17.31;32.90
6387;BME280;3226;42.162;24.756;2023-04-28T12:25:02;99891.38;;;16.98;34.85
6387;BME280;3226;42.162;24.756;2023-04-28T12:27:33;99881.97;;;17.37;33.29
6387;BME280;3226;42.162;24.756;2023-04-28T12:30:23;99879.72;;;16.74;33.71
6387;BME280;3226;42.162;24.756;2023-04-28T12:32:51;99879.53;;;16.59;33.51
6387;BME280;3226;42.162;24.756;2023-04-28T12:35:21;99872.69;;;16.48;34.82
6387;BME280;3226;42.162;24.756;2023-04-28T12:37:50;99870.09;;;16.13;34.56
6387;BME280;3226;42.162;24.756;2023-04-28T12:40:18;99862.25;;;15.95;35.60
6387;BME280;3226;42.162;24.756;2023-04-28T12:42:48;99859.34;;;16.15;36.10
6387;BME280;3226;42.162;24.756;2023-04-28T12:45:17;99860.28;;;15.97;35.23
6387;BME280;3226;42.162;24.756;2023-04-28T12:47:45;99849.78;;;16.14;35.26
6387;BME280;3226;42.162;24.756;2023-04-28T12:50:14;99852.75;;;16.11;35.46
6387;BME280;3226;42.162;24.756;2023-04-28T12:52:42;99853.59;;;16.19;35.76
6387;BME280;3226;42.162;24.756;2023-04-28T12:55:10;99856.41;;;16.26;36.04
6387;BME280;3226;42.162;24.756;2023-04-28T12:57:38;99851.66;;;16.30;35.44
6387;BME280;3226;42.162;24.756;2023-04-28T13:00:08;99833.50;;;16.35;34.60
6387;BME280;3226;42.162;24.756;2023-04-28T13:02:36;99843.09;;;16.36;34.86
6387;BME280;3226;42.162;24.756;2023-04-28T13:05:06;99831.41;;;16.04;35.24
6387;BME280;3226;42.162;24.756;2023-04-28T13:07:35;99839.97;;;15.98;35.74
6387;BME280;3226;42.162;24.756;2023-04-28T13:10:03;99824.56;;;16.19;35.41
6387;BME280;3226;42.162;24.756;2023-04-28T13:12:31;99830.94;;;16.60;34.76
6387;BME280;3226;42.162;24.756;2023-04-28T13:15:00;99803.75;;;16.25;34.57
6387;BME280;3226;42.162;24.756;2023-04-28T13:17:30;99792.66;;;16.13;34.66
6387;BME280;3226;42.162;24.756;2023-04-28T13:19:59;99815.84;;;16.36;34.73
6387;BME280;3226;42.162;24.756;2023-04-28T13:22:29;99808.47;;;16.64;34.14
6387;BME280;3226;42.162;24.756;2023-04-28T13:24:57;99805.03;;;16.80;34.20
6387;BME280;3226;42.162;24.756;2023-04-28T13:27:25;99814.75;;;16.71;33.96
6387;BME280;3226;42.162;24.756;2023-04-28T13:29:56;99804.84;;;16.57;34.35
6387;BME280;3226;42.162;24.756;2023-04-28T13:32:24;99802.97;;;16.41;34.58